Ellenville, New York
Current Conditions -  °F | °C
As of 11:22 AM on Wednesday 22 Oct 2014 (Local Time) from KMGJ Reporting Station
Overcast Overcast  
Wind Chill: 53°   Ceiling: 1600
Heat Index: 53°   Visibility: 10mi
Dew Point: 47°   Wind: 16mph
Humidity: 80%   Direction: 40°NE
Pressure: 29.98"   Gusts: 25mph
Location:  41.72°N, 74.4°W
Report Text: KMGJ 221522Z AUTO 04014G22KT 10SM OVC016 12/08 A2998 RMK AO2 T01170083 TSNO
Loading
Personal Weather Stations






























Interactive Weather Map New forecast layout! Learn more

10-Day Weather Forecast

Advertisements
Track Severe Weather on mobile